Friend, Kansas
Current Conditions -  °F | °C
As of 9:54 PM on Sunday 23 Nov 2014 (Local Time) from KGCK Reporting Station
Clear Clear  
Wind Chill: 20°   Ceiling: Unl
Heat Index: 29°   Visibility: 10mi
Dew Point: 13°   Wind: 9mph
Humidity: 51%   Direction: 320°NW
Pressure: 29.83"   Gusts: NA
Location:  38.4822°N, 100.811°W
Report Text: KGCK 240354Z AUTO 32008KT 10SM CLR M02/M11 A2983 RMK AO2 SLP111 T10171106
Loading
Personal Weather Stations






























Interactive Weather Map New forecast layout! Learn more

10-Day Weather Forecast

Advertisements
Track Severe Weather on mobile